Time;durP1;ratioP1;P1;durP2;ratioP2;P2;SDS_P1;SDS_P2;PMS_P1;PMS_P2;Temp;Humidity;BMP_temperature;BMP_pressure;BME280_temperature;BME280_humidity;BME280_pressure;Samples;Min_cycle;Max_cycle;Signal;HPM_P1;HPM_P2
2022/03/10 00:00:14;;;;;;;38.70;25.65;;;;;;;3.07;84.77;100061.25;4973033;28;20240;-75
2022/03/10 00:02:42;;;;;;;39.20;26.05;;;;;;;3.04;85.49;100066.63;4970408;28;20260;-75
2022/03/10 00:05:11;;;;;;;37.47;25.55;;;;;;;2.98;85.91;100069.41;4972739;28;20209;-76
2022/03/10 00:07:37;;;;;;;38.85;24.35;;;;;;;2.84;87.53;100067.03;4971061;28;20212;-75
2022/03/10 00:10:05;;;;;;;40.85;23.80;;;;;;;2.85;87.26;100073.22;4972446;28;20283;-76
2022/03/10 00:12:33;;;;;;;38.40;24.38;;;;;;;2.76;87.08;100068.97;4971558;28;20300;-76
2022/03/10 00:15:00;;;;;;;40.08;24.90;;;;;;;2.59;88.30;100071.06;4970463;28;20191;-76
2022/03/10 00:17:27;;;;;;;36.63;23.77;;;;;;;2.40;91.11;100075.81;4969896;28;20196;-76
2022/03/10 00:19:54;;;;;;;36.50;24.10;;;;;;;2.45;91.83;100060.66;4970075;28;20246;-76
2022/03/10 00:22:20;;;;;;;39.80;25.65;;;;;;;2.50;91.23;100062.31;4970098;28;20200;-76
2022/03/10 00:24:48;;;;;;;43.22;24.17;;;;;;;2.54;90.93;100067.59;4972896;28;20212;-76
2022/03/10 00:27:15;;;;;;;41.03;25.48;;;;;;;2.60;90.00;100063.06;4969587;28;20307;-75
2022/03/10 00:29:42;;;;;;;36.10;23.92;;;;;;;2.61;89.05;100075.44;4969957;28;20184;-76
2022/03/10 00:32:09;;;;;;;35.20;23.30;;;;;;;2.60;88.18;100073.69;4969681;28;20194;-76
2022/03/10 00:34:36;;;;;;;39.83;25.30;;;;;;;2.74;86.89;100080.50;4969396;28;20208;-76
2022/03/10 00:37:03;;;;;;;38.90;24.10;;;;;;;2.66;85.20;100075.34;4972779;28;20202;-76
2022/03/10 00:39:29;;;;;;;33.90;23.67;;;;;;;2.69;85.30;100073.53;4968875;28;20534;-76
2022/03/10 00:41:56;;;;;;;36.63;24.23;;;;;;;2.62;85.62;100074.53;4968682;28;20286;-76
2022/03/10 00:44:22;;;;;;;34.83;23.23;;;;;;;2.66;85.89;100078.00;4974444;28;20193;-76
2022/03/10 00:46:50;;;;;;;37.78;23.42;;;;;;;2.90;84.76;100084.66;4969234;28;20219;-76
2022/03/10 00:49:17;;;;;;;37.20;22.33;;;;;;;2.88;83.98;100083.81;4965874;28;20673;-76
2022/03/10 00:51:45;;;;;;;38.08;24.48;;;;;;;2.88;82.62;100089.13;4967934;28;20200;-76
2022/03/10 00:54:11;;;;;;;40.35;24.88;;;;;;;2.70;83.23;100085.03;4968558;28;20188;-75
2022/03/10 00:56:38;;;;;;;36.97;23.52;;;;;;;2.83;82.52;100085.69;4968340;28;20199;-76
2022/03/10 00:59:05;;;;;;;39.53;23.95;;;;;;;2.82;82.40;100083.91;4968641;28;20200;-76
2022/03/10 01:01:31;;;;;;;39.42;23.15;;;;;;;2.71;83.40;100090.34;4968747;28;20186;-76
2022/03/10 01:03:59;;;;;;;40.42;24.88;;;;;;;2.61;84.43;100094.03;4967151;28;20666;-77
2022/03/10 01:06:26;;;;;;;37.90;24.85;;;;;;;2.75;82.81;100093.78;4969895;28;20184;-76
2022/03/10 01:08:52;;;;;;;38.10;24.35;;;;;;;3.02;81.42;100089.75;4969477;28;20211;-76
2022/03/10 01:11:19;;;;;;;36.72;23.17;;;;;;;2.98;81.09;100088.03;4965963;28;20195;-76
2022/03/10 01:13:45;;;;;;;44.85;25.83;;;;;;;2.75;81.05;100084.94;4970504;28;20194;-76
2022/03/10 01:16:12;;;;;;;36.58;24.00;;;;;;;2.72;82.04;100089.41;4973456;28;20223;-76
2022/03/10 01:18:38;;;;;;;34.97;22.00;;;;;;;2.68;82.26;100087.72;4969831;28;20185;-77
2022/03/10 01:21:06;;;;;;;36.28;22.80;;;;;;;2.58;83.61;100080.81;4970938;28;20200;-76
2022/03/10 01:23:33;;;;;;;36.22;24.38;;;;;;;2.78;81.92;100082.22;4967061;28;20545;-76
2022/03/10 01:26:00;;;;;;;42.03;23.38;;;;;;;2.43;83.70;100081.94;4971138;28;20198;-76
2022/03/10 01:28:26;;;;;;;33.95;22.73;;;;;;;2.23;85.15;100073.44;4964635;28;20226;-76
2022/03/10 01:30:53;;;;;;;39.40;21.10;;;;;;;2.23;86.04;100076.97;4969013;28;20192;-76
2022/03/10 01:33:19;;;;;;;36.75;23.98;;;;;;;2.41;83.79;100078.44;4974270;28;20548;-76
2022/03/10 01:35:46;;;;;;;38.35;22.25;;;;;;;2.30;84.29;100075.94;4975179;28;20651;-77
2022/03/10 01:38:14;;;;;;;34.67;22.40;;;;;;;2.39;83.66;100074.94;4971578;28;20635;-77
2022/03/10 01:40:41;;;;;;;40.67;24.20;;;;;;;2.49;84.07;100087.16;4970184;28;20192;-76
2022/03/10 01:43:07;;;;;;;39.13;24.90;;;;;;;2.49;86.89;100079.19;4970705;28;20185;-76
2022/03/10 01:45:34;;;;;;;35.45;23.13;;;;;;;2.63;84.64;100078.94;4969800;28;20290;-76
2022/03/10 01:48:01;;;;;;;36.40;23.13;;;;;;;2.68;82.39;100069.09;4957233;28;20749;-77
2022/03/10 01:50:28;;;;;;;36.60;21.80;;;;;;;2.74;80.81;100075.19;4959472;28;20201;-75
2022/03/10 01:52:54;;;;;;;38.92;23.38;;;;;;;2.75;79.90;100074.31;4965653;28;20644;-75
2022/03/10 01:55:23;;;;;;;33.40;21.17;;;;;;;2.75;79.65;100064.53;4957956;28;20205;-75
2022/03/10 01:57:50;;;;;;;38.65;25.80;;;;;;;2.86;82.99;100070.53;4958167;28;20697;-77
2022/03/10 02:00:17;;;;;;;38.05;25.67;;;;;;;2.93;85.30;100069.50;4960479;28;20206;-76
2022/03/10 02:02:44;;;;;;;39.85;26.15;;;;;;;2.90;87.65;100066.03;4962149;28;20552;-76
2022/03/10 02:05:11;;;;;;;44.75;27.15;;;;;;;3.03;88.50;100062.25;4968909;28;20195;-76
2022/03/10 02:10:25;;;;;;;43.17;25.40;;;;;;;3.09;84.85;100056.78;4968603;28;20198;-76
2022/03/10 02:12:53;;;;;;;40.60;24.38;;;;;;;3.03;83.50;100046.28;4968970;28;20218;-76
2022/03/10 02:18:06;;;;;;;38.30;22.90;;;;;;;3.02;81.61;100060.47;4964222;28;20202;-77
2022/03/10 02:20:34;;;;;;;33.40;22.27;;;;;;;3.01;80.48;100058.72;4966962;28;20230;-76
2022/03/10 02:23:03;;;;;;;36.22;23.20;;;;;;;2.77;77.25;100061.88;4967556;28;20198;-75
2022/03/10 02:25:30;;;;;;;39.67;23.35;;;;;;;2.69;78.08;100062.88;4959603;28;20194;-77
2022/03/10 02:27:57;;;;;;;37.92;21.45;;;;;;;2.79;77.58;100071.56;4970882;28;20216;-77
2022/03/10 02:30:28;;;;;;;37.88;23.27;;;;;;;2.86;77.08;100064.34;4972335;28;20639;-77
2022/03/10 02:32:54;;;;;;;37.35;22.63;;;;;;;2.86;77.11;100069.66;4957714;28;20538;-76
2022/03/10 02:35:21;;;;;;;32.97;22.08;;;;;;;2.78;79.14;100069.81;4964168;28;20284;-76
2022/03/10 02:37:48;;;;;;;40.20;21.40;;;;;;;2.36;79.58;100064.34;4966236;28;20185;-77
2022/03/10 02:40:16;;;;;;;35.15;21.27;;;;;;;2.17;81.97;100062.91;4974794;28;20211;-76
2022/03/10 02:42:42;;;;;;;38.40;20.73;;;;;;;2.28;81.72;100063.59;4974722;28;20205;-76
2022/03/10 02:45:10;;;;;;;36.88;22.10;;;;;;;2.37;80.90;100066.09;4968875;28;20283;-76
2022/03/10 02:47:37;;;;;;;36.45;22.08;;;;;;;2.37;80.50;100066.09;4955946;29;20231;-76
2022/03/10 02:50:06;;;;;;;37.95;22.42;;;;;;;2.42;80.50;100068.69;4969710;28;20524;-77
2022/03/10 02:52:34;;;;;;;34.30;21.30;;;;;;;2.52;79.34;100072.06;4972844;28;20196;-76
2022/03/10 02:55:01;;;;;;;36.75;21.85;;;;;;;2.34;79.21;100071.47;4973851;28;20196;-76
2022/03/10 02:57:30;;;;;;;32.28;21.98;;;;;;;2.47;78.74;100077.47;4973904;28;20198;-76
2022/03/10 02:59:57;;;;;;;31.70;21.65;;;;;;;2.55;78.02;100075.53;4974607;28;20217;-76
2022/03/10 03:02:24;;;;;;;34.08;21.30;;;;;;;2.34;78.94;100078.59;4972747;28;20655;-77
2022/03/10 03:04:51;;;;;;;39.90;21.48;;;;;;;2.36;79.43;100076.78;4968390;28;20648;-77
2022/03/10 03:07:17;;;;;;;34.20;23.08;;;;;;;2.35;78.66;100073.22;4965403;28;20251;-76
2022/03/10 03:09:44;;;;;;;36.33;20.30;;;;;;;2.23;79.32;100074.31;4966963;28;20251;-76
2022/03/10 03:12:10;;;;;;;29.58;20.17;;;;;;;2.22;80.22;100074.34;4974849;28;20200;-76
2022/03/10 03:14:38;;;;;;;33.78;21.20;;;;;;;2.17;80.16;100082.41;4972881;28;20188;-76
2022/03/10 03:17:05;;;;;;;32.40;20.63;;;;;;;2.08;81.09;100085.19;4971808;28;20211;-76
2022/03/10 03:19:32;;;;;;;33.92;20.77;;;;;;;2.00;81.76;100081.78;4971813;28;20228;-76
2022/03/10 03:21:58;;;;;;;33.47;20.33;;;;;;;1.97;82.46;100071.22;4972271;28;20283;-76
2022/03/10 03:24:25;;;;;;;35.15;21.15;;;;;;;1.94;82.96;100074.78;4972229;28;20202;-76
2022/03/10 03:26:51;;;;;;;34.78;21.00;;;;;;;2.14;82.13;100079.78;4974269;28;20205;-76
2022/03/10 03:29:18;;;;;;;36.88;22.80;;;;;;;2.18;81.69;100084.13;4970388;28;20211;-77
2022/03/10 03:31:46;;;;;;;32.72;20.75;;;;;;;2.34;81.38;100083.91;4971747;28;20204;-75
2022/03/10 03:34:13;;;;;;;31.55;19.48;;;;;;;2.22;80.92;100080.53;4968816;28;20208;-75
2022/03/10 03:36:41;;;;;;;34.17;22.02;;;;;;;2.16;80.45;100083.28;4974270;28;20296;-74
2022/03/10 03:39:08;;;;;;;34.33;20.80;;;;;;;1.91;80.74;100071.31;4971278;28;20198;-75
2022/03/10 03:41:35;;;;;;;37.92;20.65;;;;;;;1.83;81.14;100080.28;4970585;28;20204;-76
2022/03/10 03:44:02;;;;;;;30.60;20.13;;;;;;;2.00;80.31;100071.16;4973714;28;20669;-76
2022/03/10 03:46:28;;;;;;;36.42;21.10;;;;;;;2.01;79.76;100071.16;4970384;28;20188;-76
2022/03/10 03:48:57;;;;;;;31.42;19.85;;;;;;;1.96;79.23;100070.31;4964114;28;20224;-76
2022/03/10 03:51:23;;;;;;;29.27;19.95;;;;;;;2.04;79.69;100072.88;4969190;28;20205;-76
2022/03/10 03:53:50;;;;;;;31.63;21.90;;;;;;;2.19;80.57;100067.28;4970938;28;20543;-75
2022/03/10 03:56:17;;;;;;;40.65;22.27;;;;;;;2.11;83.10;100066.56;4970615;28;20200;-75
2022/03/10 03:58:43;;;;;;;35.92;21.80;;;;;;;2.01;81.25;100075.56;4970839;28;20643;-76
2022/03/10 04:01:10;;;;;;;32.83;20.83;;;;;;;1.86;81.76;100074.91;4969416;28;20654;-77
2022/03/10 04:03:38;;;;;;;29.85;19.95;;;;;;;1.65;82.12;100072.53;4968510;28;20201;-75
2022/03/10 04:06:06;;;;;;;30.88;19.80;;;;;;;1.44;84.10;100069.28;4973218;28;20554;-75
2022/03/10 04:08:33;;;;;;;31.67;19.58;;;;;;;1.47;84.34;100071.03;4967575;28;20294;-76
2022/03/10 04:11:00;;;;;;;33.05;21.02;;;;;;;1.49;84.78;100069.22;4969608;28;20204;-75
2022/03/10 04:13:26;;;;;;;33.15;20.50;;;;;;;1.40;84.60;100079.97;4969757;28;20220;-76
2022/03/10 04:15:53;;;;;;;31.85;20.98;;;;;;;1.37;84.65;100069.41;4968931;28;20191;-76
2022/03/10 04:18:20;;;;;;;33.78;20.92;;;;;;;1.29;85.24;100084.53;4972741;28;20251;-77
2022/03/10 04:20:48;;;;;;;32.90;19.95;;;;;;;1.22;84.89;100083.72;4969094;28;20232;-76
2022/03/10 04:23:16;;;;;;;28.65;19.52;;;;;;;1.19;84.92;100079.34;4966064;28;20193;-76
2022/03/10 04:25:43;;;;;;;33.70;20.45;;;;;;;1.46;83.74;100075.44;4972771;28;20207;-76
2022/03/10 04:28:10;;;;;;;32.20;19.42;;;;;;;1.37;83.76;100080.00;4965891;28;20212;-76
2022/03/10 04:30:38;;;;;;;31.80;20.00;;;;;;;1.27;84.57;100083.66;4967415;28;20185;-76
2022/03/10 04:33:06;;;;;;;32.60;18.55;;;;;;;1.28;84.77;100086.31;4968847;28;20208;-76
2022/03/10 04:35:33;;;;;;;31.58;20.60;;;;;;;1.29;85.27;100085.44;4968358;28;20204;-76
2022/03/10 04:38:00;;;;;;;31.25;19.92;;;;;;;1.38;83.84;100087.97;4968261;28;20198;-76
2022/03/10 04:40:28;;;;;;;34.05;21.92;;;;;;;1.30;84.60;100088.97;4968385;28;20223;-76
2022/03/10 04:42:54;;;;;;;31.33;20.35;;;;;;;1.21;85.22;100089.94;4971595;28;20646;-76
2022/03/10 04:45:21;;;;;;;31.23;18.45;;;;;;;1.25;85.39;100091.66;4969499;28;20662;-76
2022/03/10 04:47:48;;;;;;;34.50;19.60;;;;;;;1.30;84.56;100081.88;4967079;28;20189;-76
2022/03/10 04:50:16;;;;;;;32.25;20.10;;;;;;;1.51;83.60;100087.78;4962554;28;20189;-76
2022/03/10 04:52:43;;;;;;;31.13;20.17;;;;;;;1.33;83.55;100089.78;4966864;28;20208;-76
2022/03/10 04:55:11;;;;;;;32.88;19.92;;;;;;;1.31;84.12;100091.59;4966900;28;20211;-76
2022/03/10 04:57:40;;;;;;;30.33;19.58;;;;;;;1.35;83.52;100085.34;4967353;28;20195;-76
2022/03/10 05:00:10;;;;;;;30.00;19.17;;;;;;;1.42;82.47;100087.00;4961588;28;20197;-76
2022/03/10 05:02:38;;;;;;;34.78;20.48;;;;;;;1.40;83.05;100086.19;4971511;28;20219;-75
2022/03/10 05:05:05;;;;;;;36.72;19.35;;;;;;;1.58;81.58;100090.38;4966297;28;20192;-75
2022/03/10 05:07:32;;;;;;;33.50;20.08;;;;;;;1.62;80.83;100094.69;4967066;28;20275;-76
2022/03/10 05:09:59;;;;;;;31.42;19.77;;;;;;;1.49;81.24;100089.59;4967600;28;20232;-77
2022/03/10 05:12:25;;;;;;;34.75;19.63;;;;;;;1.55;81.40;100095.69;4966682;28;20200;-76
2022/03/10 05:14:54;;;;;;;30.98;19.83;;;;;;;1.54;81.70;100098.34;4966460;28;20200;-75
2022/03/10 05:17:23;;;;;;;26.88;17.52;;;;;;;1.57;79.93;100093.03;4967345;28;20699;-76
2022/03/10 05:19:50;;;;;;;28.77;18.83;;;;;;;1.74;79.49;100090.13;4970441;28;20231;-76
2022/03/10 05:22:17;;;;;;;27.98;18.63;;;;;;;1.66;80.18;100087.59;4972748;28;20198;-75
2022/03/10 05:24:44;;;;;;;28.95;19.10;;;;;;;1.64;79.97;100090.25;4972134;28;20199;-76
2022/03/10 05:27:10;;;;;;;27.58;19.45;;;;;;;1.51;80.94;100087.78;4972306;28;20184;-75
2022/03/10 05:29:40;;;;;;;31.25;19.10;;;;;;;1.53;80.54;100091.31;4972304;28;20220;-75
2022/03/10 05:32:10;;;;;;;31.88;19.02;;;;;;;1.34;81.46;100096.84;4972591;28;20188;-78
2022/03/10 05:34:37;;;;;;;31.65;19.65;;;;;;;1.36;82.18;100097.72;4972238;28;20196;-76
2022/03/10 05:37:04;;;;;;;34.08;20.40;;;;;;;1.39;82.40;100099.44;4972954;28;20196;-75
2022/03/10 05:39:31;;;;;;;28.08;19.85;;;;;;;1.51;82.24;100099.28;4972570;28;20639;-76
2022/03/10 05:41:57;;;;;;;32.78;18.98;;;;;;;1.30;81.88;100100.44;4972830;28;20188;-76
2022/03/10 05:44:24;;;;;;;31.25;18.27;;;;;;;1.54;81.76;100098.34;4972204;28;20292;-76
2022/03/10 05:46:50;;;;;;;27.85;18.10;;;;;;;1.68;80.54;100104.38;4972153;28;20189;-75
2022/03/10 05:49:19;;;;;;;32.65;19.85;;;;;;;1.69;80.17;100106.13;4971990;28;20212;-76
2022/03/10 05:51:46;;;;;;;34.50;19.95;;;;;;;1.82;80.04;100112.16;4972180;28;20204;-77
2022/03/10 05:54:12;;;;;;;33.75;20.52;;;;;;;1.85;79.57;100106.78;4973617;28;20203;-76
2022/03/10 05:56:39;;;;;;;32.25;20.27;;;;;;;1.74;79.92;100106.97;4975188;28;20195;-76
2022/03/10 05:59:06;;;;;;;32.20;20.55;;;;;;;1.67;80.35;100107.91;4974831;28;20275;-76
2022/03/10 06:01:32;;;;;;;30.27;20.73;;;;;;;1.52;82.01;100106.34;4974845;28;20224;-76
2022/03/10 06:03:59;;;;;;;31.50;19.33;;;;;;;1.42;82.27;100118.84;4976017;28;20188;-76
2022/03/10 06:06:27;;;;;;;31.88;20.63;;;;;;;1.31;82.71;100120.78;4975415;28;20212;-76
2022/03/10 06:08:53;;;;;;;34.58;21.23;;;;;;;1.16;84.88;100116.53;4975608;28;20569;-77
2022/03/10 06:11:20;;;;;;;35.88;21.45;;;;;;;1.24;85.07;100127.94;4973361;28;20206;-76
2022/03/10 06:13:47;;;;;;;35.25;21.10;;;;;;;1.29;84.87;100132.28;4975129;28;20708;-75
2022/03/10 06:16:13;;;;;;;32.67;20.08;;;;;;;1.08;86.94;100130.75;4975624;28;20193;-75
2022/03/10 06:18:40;;;;;;;37.90;21.45;;;;;;;1.20;86.68;100128.00;4974845;28;20253;-76
2022/03/10 06:21:06;;;;;;;32.30;19.80;;;;;;;1.37;85.49;100133.94;4964362;28;20192;-76
2022/03/10 06:23:34;;;;;;;42.95;25.83;;;;;;;1.38;85.42;100137.47;4971591;28;20192;-76
2022/03/10 06:26:01;;;;;;;31.48;20.45;;;;;;;1.17;86.49;100146.56;4969238;28;20192;-76
2022/03/10 06:28:27;;;;;;;36.72;21.42;;;;;;;1.14;87.70;100141.31;4958490;28;20518;-76
2022/03/10 06:30:54;;;;;;;40.17;22.60;;;;;;;1.41;86.27;100148.06;4962933;28;20277;-76
2022/03/10 06:33:20;;;;;;;39.50;23.00;;;;;;;1.47;85.18;100145.34;4961611;28;20193;-77
2022/03/10 06:35:47;;;;;;;39.05;22.60;;;;;;;1.59;84.24;100147.84;4965006;28;20211;-77
2022/03/10 06:38:14;;;;;;;38.08;21.45;;;;;;;1.65;83.86;100147.78;4959182;28;20554;-76
2022/03/10 06:40:42;;;;;;;40.00;21.77;;;;;;;1.89;82.41;100140.34;4963417;28;20651;-77
2022/03/10 06:43:08;;;;;;;33.92;21.42;;;;;;;1.90;81.25;100138.56;4963581;28;20203;-77
2022/03/10 06:45:35;;;;;;;49.97;22.60;;;;;;;2.06;80.76;100138.34;4964836;28;20627;-76
2022/03/10 06:48:10;;;;;;;36.33;22.60;;;;;;;1.79;81.77;100147.59;4966867;28;20198;-77
2022/03/10 06:50:37;;;;;;;35.03;21.65;;;;;;;1.84;80.73;100145.75;4963715;28;20318;-76
2022/03/10 06:53:03;;;;;;;34.15;22.25;;;;;;;1.98;80.41;100142.88;4963232;28;20192;-76
2022/03/10 06:55:30;;;;;;;36.42;23.40;;;;;;;2.01;79.83;100144.63;4963383;28;20598;-75
2022/03/10 06:57:58;;;;;;;36.45;22.10;;;;;;;2.23;78.16;100148.72;4958181;28;20317;-77
2022/03/10 07:00:25;;;;;;;32.13;20.00;;;;;;;2.20;77.39;100146.09;4964690;28;20188;-76
2022/03/10 07:02:52;;;;;;;31.95;20.10;;;;;;;2.26;76.77;100146.03;4966521;28;20639;-76
2022/03/10 07:05:19;;;;;;;44.50;22.88;;;;;;;2.37;75.64;100140.53;4964369;28;20209;-76
2022/03/10 07:07:46;;;;;;;36.08;21.55;;;;;;;2.23;76.79;100138.06;4960761;28;20267;-75
2022/03/10 07:10:13;;;;;;;37.42;21.45;;;;;;;2.39;76.05;100144.03;4957518;28;20204;-76
2022/03/10 07:12:42;;;;;;;39.38;23.80;;;;;;;2.54;74.77;100147.38;4962746;28;20288;-76
2022/03/10 07:15:11;;;;;;;39.25;22.58;;;;;;;2.41;74.87;100152.88;4963262;28;20192;-75
2022/03/10 07:17:39;;;;;;;36.78;22.10;;;;;;;2.78;73.67;100149.59;4966297;28;20516;-76
2022/03/10 07:20:07;;;;;;;31.42;20.75;;;;;;;2.88;72.92;100152.97;4956861;28;20256;-76
2022/03/10 07:22:33;;;;;;;38.25;22.15;;;;;;;2.71;72.42;100150.59;4954707;29;20181;-75
2022/03/10 07:25:00;;;;;;;37.22;23.13;;;;;;;2.71;71.92;100155.91;4954645;29;20219;-76
2022/03/10 07:27:27;;;;;;;37.88;22.48;;;;;;;2.60;72.84;100149.91;4955048;29;20196;-76
2022/03/10 07:29:53;;;;;;;30.20;19.40;;;;;;;2.77;71.97;100153.16;4954435;29;20227;-76
2022/03/10 07:32:23;;;;;;;37.70;21.65;;;;;;;2.98;70.39;100153.69;4954703;29;20203;-76
2022/03/10 07:34:50;;;;;;;35.25;24.65;;;;;;;3.28;69.37;100158.44;4954934;29;20203;-76
2022/03/10 07:37:17;;;;;;;33.60;22.33;;;;;;;3.30;70.53;100153.97;4955523;29;20185;-76
2022/03/10 07:39:43;;;;;;;37.33;22.15;;;;;;;3.54;69.26;100163.22;4954668;29;20200;-76
2022/03/10 07:42:11;;;;;;;36.80;23.73;;;;;;;3.47;69.66;100158.94;4954236;29;20202;-75
2022/03/10 07:44:38;;;;;;;35.50;23.90;;;;;;;3.54;69.98;100154.38;4954616;29;20597;-75
2022/03/10 07:47:06;;;;;;;44.03;24.02;;;;;;;3.69;69.93;100147.84;4954650;29;20191;-77
2022/03/10 07:49:34;;;;;;;47.55;33.78;;;;;;;4.11;67.39;100145.13;4954741;29;20255;-76
2022/03/10 07:52:01;;;;;;;44.40;25.00;;;;;;;4.23;65.99;100135.97;4953702;29;20202;-76
2022/03/10 07:54:28;;;;;;;41.20;25.67;;;;;;;4.20;66.32;100134.25;4954039;29;20202;-77
2022/03/10 07:56:55;;;;;;;36.30;23.30;;;;;;;4.44;65.57;100137.28;4954427;29;20190;-75
2022/03/10 07:59:21;;;;;;;33.60;23.52;;;;;;;4.65;63.40;100138.50;4954630;29;20196;-77
2022/03/10 08:01:48;;;;;;;37.72;23.38;;;;;;;4.73;62.57;100126.75;4954354;29;20191;-78
2022/03/10 08:04:15;;;;;;;36.45;23.35;;;;;;;4.88;61.46;100127.25;4954798;29;20210;-76
2022/03/10 08:06:43;;;;;;;39.28;23.55;;;;;;;4.89;61.23;100119.22;4954329;29;20195;-75
2022/03/10 08:09:10;;;;;;;34.75;22.52;;;;;;;5.08;59.87;100124.03;4954191;29;20309;-76
2022/03/10 08:12:04;;;;;;;36.72;23.40;;;;;;;5.21;59.37;100118.31;4955066;29;20584;-78
2022/03/10 08:14:31;;;;;;;35.13;23.10;;;;;;;5.35;58.62;100120.59;4955207;29;20200;-76
2022/03/10 08:16:58;;;;;;;42.65;22.48;;;;;;;5.48;57.36;100113.13;4953635;28;20208;-77
2022/03/10 08:19:24;;;;;;;34.97;22.30;;;;;;;5.63;56.35;100117.13;4956228;28;20243;-80
2022/03/10 08:21:52;;;;;;;34.00;22.27;;;;;;;5.70;55.68;100113.38;4953793;29;20188;-79
2022/03/10 08:24:19;;;;;;;33.83;21.10;;;;;;;5.76;55.25;100115.84;4954245;29;20211;-79
2022/03/10 08:26:45;;;;;;;34.90;22.58;;;;;;;5.82;54.47;100110.31;4956801;29;20207;-74
2022/03/10 08:29:12;;;;;;;35.70;23.23;;;;;;;5.87;54.13;100099.47;4953802;29;20216;-76
2022/03/10 08:31:38;;;;;;;34.45;20.80;;;;;;;5.97;53.61;100105.44;4954694;29;20205;-75
2022/03/10 08:34:05;;;;;;;32.22;20.80;;;;;;;6.11;52.91;100103.22;4954265;29;20195;-75
2022/03/10 08:36:32;;;;;;;33.58;23.33;;;;;;;6.27;52.24;100103.63;4954056;29;20201;-75
2022/03/10 08:39:00;;;;;;;36.05;21.77;;;;;;;6.45;51.39;100104.81;4954410;29;20212;-75
2022/03/10 08:41:26;;;;;;;31.05;20.17;;;;;;;6.56;51.11;100101.78;4954606;29;20197;-75
2022/03/10 08:43:53;;;;;;;34.42;21.10;;;;;;;6.67;50.36;100107.63;4954259;29;20203;-75
2022/03/10 08:46:19;;;;;;;36.03;22.60;;;;;;;6.97;49.68;100095.00;4953855;29;20201;-75
2022/03/10 08:48:46;;;;;;;36.33;24.15;;;;;;;7.13;49.00;100105.16;4954182;29;20193;-73
2022/03/10 08:51:13;;;;;;;34.80;22.00;;;;;;;7.32;47.82;100098.19;4953867;29;20232;-75
2022/03/10 08:53:39;;;;;;;29.02;19.48;;;;;;;7.31;45.87;100097.31;4953857;29;20527;-76
2022/03/10 08:56:09;;;;;;;34.08;20.73;;;;;;;7.34;46.29;100098.16;4953599;29;20203;-75
2022/03/10 08:58:35;;;;;;;31.23;20.15;;;;;;;7.35;45.55;100097.19;4953932;29;20589;-75
2022/03/10 09:01:02;;;;;;;30.10;20.42;;;;;;;7.42;45.41;100101.44;4953991;29;20200;-74
2022/03/10 09:03:29;;;;;;;30.27;19.85;;;;;;;7.68;44.43;100095.94;4953414;29;20189;-76
2022/03/10 09:05:55;;;;;;;31.40;20.25;;;;;;;7.76;44.08;100101.03;4953127;29;20201;-74
2022/03/10 09:08:22;;;;;;;32.35;21.38;;;;;;;7.87;44.00;100100.63;4953164;29;20192;-73
2022/03/10 09:10:48;;;;;;;29.30;19.05;;;;;;;7.84;44.17;100098.03;4946021;29;20686;-75
2022/03/10 09:13:16;;;;;;;30.00;19.52;;;;;;;8.03;43.78;100088.34;4953420;29;20259;-75
2022/03/10 09:15:45;;;;;;;35.15;20.70;;;;;;;8.39;42.79;100085.09;4953317;29;20190;-75
2022/03/10 09:18:12;;;;;;;29.85;19.15;;;;;;;8.54;42.65;100083.59;4959371;28;20577;-73
2022/03/10 09:20:39;;;;;;;28.73;19.65;;;;;;;8.46;42.55;100075.88;4989185;28;20227;-75
2022/03/10 09:23:05;;;;;;;29.98;19.90;;;;;;;8.59;42.60;100064.63;4991942;28;20198;-75
2022/03/10 09:25:32;;;;;;;31.98;20.58;;;;;;;8.73;42.72;100073.84;4992368;28;20274;-75
2022/03/10 09:27:59;;;;;;;32.92;20.38;;;;;;;8.70;42.09;100068.59;4991687;28;20229;-74
2022/03/10 09:30:27;;;;;;;29.55;18.38;;;;;;;8.91;41.64;100058.75;4995156;28;20217;-74
2022/03/10 09:32:54;;;;;;;33.20;21.13;;;;;;;9.05;41.26;100070.69;4996332;28;20541;-74
2022/03/10 09:35:21;;;;;;;34.17;20.10;;;;;;;9.42;40.77;100066.34;4995960;28;20655;-73
2022/03/10 09:37:48;;;;;;;32.55;20.20;;;;;;;9.45;40.76;100064.41;4996101;28;20185;-75
2022/03/10 09:40:14;;;;;;;30.23;19.17;;;;;;;9.49;40.49;100057.03;4996000;28;20540;-75
2022/03/10 09:42:45;;;;;;;30.15;21.13;;;;;;;9.66;40.15;100049.06;4995638;28;20205;-75
2022/03/10 09:45:12;;;;;;;32.55;20.45;;;;;;;9.81;39.88;100044.75;4995400;28;20188;-75
2022/03/10 09:47:42;;;;;;;34.13;20.65;;;;;;;10.03;39.18;100052.69;4995943;28;20190;-75
2022/03/10 09:50:13;;;;;;;51.13;23.77;;;;;;;9.89;39.65;100047.97;4995786;28;20574;-74
2022/03/10 09:52:40;;;;;;;32.47;20.95;;;;;;;10.19;39.33;100044.72;4995909;28;20289;-76
2022/03/10 09:55:09;;;;;;;35.60;21.90;;;;;;;10.56;38.52;100038.41;4995740;28;20633;-74
2022/03/10 09:57:38;;;;;;;30.60;20.23;;;;;;;10.77;38.24;100046.34;4995091;28;20290;-74
2022/03/10 10:00:06;;;;;;;32.78;20.60;;;;;;;10.85;37.93;100041.41;4995609;28;20341;-74
2022/03/10 10:02:33;;;;;;;31.10;19.80;;;;;;;11.04;37.74;100044.88;4995473;28;20705;-74
2022/03/10 10:05:01;;;;;;;31.80;21.67;;;;;;;11.16;37.63;100029.88;4995379;28;20210;-74
2022/03/10 10:07:29;;;;;;;32.92;20.80;;;;;;;11.35;37.57;100028.88;4995194;28;20186;-75
2022/03/10 10:09:58;;;;;;;33.13;20.77;;;;;;;11.26;37.56;100031.13;4994636;28;20207;-75
2022/03/10 10:12:29;;;;;;;35.00;23.92;;;;;;;11.25;37.72;100032.06;4994628;28;20213;-75
2022/03/10 10:14:56;;;;;;;41.85;23.60;;;;;;;11.46;37.61;100032.75;4994701;28;20229;-75
2022/03/10 10:17:28;;;;;;;41.25;24.40;;;;;;;11.57;37.14;100025.88;4995183;28;20202;-74
2022/03/10 10:19:56;;;;;;;31.55;20.80;;;;;;;11.91;36.63;100026.72;4994710;28;20771;-74
2022/03/10 10:22:26;;;;;;;34.28;22.33;;;;;;;12.00;36.26;100018.97;4994976;28;20266;-74
2022/03/10 10:24:54;;;;;;;34.08;21.58;;;;;;;12.25;35.63;100022.94;4994844;28;20203;-75
2022/03/10 10:27:23;;;;;;;37.10;22.58;;;;;;;12.49;35.51;100009.84;4994766;28;20183;-74
2022/03/10 10:29:52;;;;;;;35.65;26.70;;;;;;;12.29;36.21;100017.28;4995411;28;20219;-75
2022/03/10 10:32:26;;;;;;;29.35;20.88;;;;;;;12.39;35.42;100008.63;4995350;28;20203;-75
2022/03/10 10:35:05;;;;;;;31.80;21.40;;;;;;;12.66;35.14;100007.00;4995087;28;20205;-74
2022/03/10 10:37:35;;;;;;;40.08;21.02;;;;;;;12.79;34.42;100009.81;4995477;28;20294;-74
2022/03/10 10:40:02;;;;;;;31.27;20.88;;;;;;;12.33;34.94;100006.31;4994268;28;20193;-74
2022/03/10 10:42:33;;;;;;;36.05;21.23;;;;;;;12.29;35.51;100002.91;4994194;28;20286;-74
2022/03/10 10:45:01;;;;;;;34.92;22.92;;;;;;;12.53;34.95;100000.59;4994282;28;20192;-74
2022/03/10 10:47:28;;;;;;;30.42;21.30;;;;;;;12.71;34.59;99993.22;4994798;28;20194;-75
2022/03/10 10:50:02;;;;;;;39.13;21.63;;;;;;;12.91;34.47;99989.25;4993596;28;20693;-76
2022/03/10 10:52:41;;;;;;;28.52;21.17;;;;;;;13.14;33.91;99980.63;4994766;28;20187;-75
2022/03/10 10:55:10;;;;;;;33.10;21.92;;;;;;;13.29;33.29;99981.50;4994370;28;20190;-75
2022/03/10 10:57:41;;;;;;;31.90;21.63;;;;;;;12.88;33.71;99976.81;4994208;28;20218;-75
2022/03/10 11:00:10;;;;;;;31.50;21.88;;;;;;;12.86;34.00;99983.28;4994554;28;20183;-74
2022/03/10 11:05:18;;;;;;;37.50;22.48;;;;;;;13.07;33.95;99967.56;4992283;28;20258;-75
2022/03/10 11:07:49;;;;;;;30.80;21.15;;;;;;;13.15;33.63;99974.22;4993805;28;20246;-75
2022/03/10 11:10:16;;;;;;;33.42;22.80;;;;;;;13.42;33.63;99964.50;4994102;28;20247;-74
2022/03/10 11:12:55;;;;;;;32.88;19.73;;;;;;;13.60;32.47;99967.88;4997703;28;20221;-78
2022/03/10 11:15:22;;;;;;;37.28;21.50;;;;;;;13.64;32.42;99970.28;4993846;28;20195;-77
2022/03/10 11:17:49;;;;;;;32.90;19.17;;;;;;;13.66;31.99;99967.47;4993909;28;20211;-77
2022/03/10 11:20:26;;;;;;;31.30;20.35;;;;;;;13.79;31.77;99965.69;4993924;28;20611;-77
2022/03/10 11:23:05;;;;;;;33.30;21.27;;;;;;;13.76;31.17;99964.03;4995926;28;20202;-76
2022/03/10 11:25:42;;;;;;;27.27;18.95;;;;;;;13.83;30.59;99969.06;4993321;28;20263;-76